Time;durP1;ratioP1;P1;durP2;ratioP2;P2;SDS_P1;SDS_P2;PMS_P1;PMS_P2;Temp;Humidity;BMP_temperature;BMP_pressure;BME280_temperature;BME280_humidity;BME280_pressure;Samples;Min_cycle;Max_cycle;Signal;HPM_P1;HPM_P2
2022/07/06 00:01:50;;;;;;;5.57;4.10;;;;;;;14.75;86.29;99532.25;8428731;28;20044;-73
2022/07/06 00:05:52;;;;;;;8.45;4.80;;;;;;;14.71;86.03;99530.50;8421892;28;20040;-73
2022/07/06 00:09:53;;;;;;;8.25;4.40;;;;;;;14.64;86.18;99533.75;8428897;28;20509;-73
2022/07/06 00:13:54;;;;;;;10.95;4.50;;;;;;;14.62;86.24;99527.81;8427822;28;20044;-73
2022/07/06 00:17:55;;;;;;;9.90;4.20;;;;;;;14.61;86.26;99539.81;8385026;28;20383;-73
2022/07/06 00:21:55;;;;;;;9.80;4.20;;;;;;;14.55;86.32;99541.09;8428419;28;20055;-74
2022/07/06 00:25:56;;;;;;;12.35;4.70;;;;;;;14.54;86.67;99536.78;8426982;28;20048;-74
2022/07/06 00:29:57;;;;;;;10.88;4.82;;;;;;;14.54;86.73;99536.78;8427236;28;20360;-74
2022/07/06 00:33:58;;;;;;;10.60;4.55;;;;;;;14.54;86.48;99531.34;8425862;28;20044;-73
2022/07/06 00:37:59;;;;;;;13.40;4.40;;;;;;;14.51;86.55;99523.88;8422746;28;20067;-74
2022/07/06 00:42:00;;;;;;;11.00;4.60;;;;;;;14.46;86.96;99524.03;8422832;28;20040;-73
2022/07/06 00:46:01;;;;;;;10.77;4.13;;;;;;;14.44;86.77;99509.97;8423423;28;20048;-73
2022/07/06 00:50:18;;;;;;;6.72;4.43;;;;;;;14.40;86.96;99514.47;8418648;28;20147;-73
2022/07/06 00:54:19;;;;;;;8.68;4.15;;;;;;;14.36;86.88;99513.50;8427680;28;20045;-73
2022/07/06 00:58:20;;;;;;;7.03;4.30;;;;;;;14.28;87.13;99511.56;8419704;28;20054;-73
2022/07/06 01:02:22;;;;;;;7.78;4.30;;;;;;;14.22;87.01;99512.88;8427876;28;20044;-74
2022/07/06 01:06:23;;;;;;;8.25;4.13;;;;;;;14.16;86.97;99503.31;8432150;28;20127;-74
2022/07/06 01:10:24;;;;;;;5.88;4.20;;;;;;;14.11;87.05;99507.00;8408935;28;21551;-74
2022/07/06 01:14:25;;;;;;;6.50;3.63;;;;;;;14.04;87.28;99506.69;8433112;28;20048;-73
2022/07/06 01:18:26;;;;;;;5.88;4.38;;;;;;;13.98;87.37;99512.59;8414299;28;20044;-73
2022/07/06 01:22:27;;;;;;;10.27;4.72;;;;;;;13.93;87.19;99505.41;8410827;28;20040;-73
2022/07/06 01:26:28;;;;;;;11.65;3.95;;;;;;;13.91;87.35;99516.56;8379522;28;20036;-74
2022/07/06 01:30:30;;;;;;;16.85;3.65;;;;;;;13.87;87.14;99523.78;8412359;28;20044;-73
2022/07/06 01:34:30;;;;;;;12.23;4.25;;;;;;;13.83;87.22;99522.81;8434136;28;20055;-73
2022/07/06 01:38:32;;;;;;;9.15;3.88;;;;;;;13.77;87.14;99518.66;8429569;28;20040;-74
2022/07/06 01:42:33;;;;;;;7.50;3.85;;;;;;;13.72;87.08;99510.69;8430993;28;20444;-73
2022/07/06 01:46:35;;;;;;;11.43;4.10;;;;;;;13.64;87.50;99514.19;8431594;28;20063;-73
2022/07/06 01:50:35;;;;;;;6.75;4.32;;;;;;;13.63;87.50;99518.03;8432128;28;20506;-73
2022/07/06 01:54:36;;;;;;;17.63;4.90;;;;;;;13.62;87.26;99511.00;8429357;28;20048;-73
2022/07/06 01:58:38;;;;;;;9.07;4.70;;;;;;;13.61;87.60;99503.97;8412030;28;20051;-73
2022/07/06 02:02:39;;;;;;;7.57;4.63;;;;;;;13.60;87.59;99507.78;8425747;28;20090;-74
2022/07/06 02:06:40;;;;;;;11.48;4.65;;;;;;;13.57;87.43;99511.16;8427826;28;20185;-73
2022/07/06 02:10:41;;;;;;;5.53;4.45;;;;;;;13.51;87.29;99509.72;8431964;28;20040;-73
2022/07/06 02:14:42;;;;;;;8.48;3.97;;;;;;;13.43;87.22;99514.00;8427887;28;20044;-73
2022/07/06 02:18:43;;;;;;;9.75;5.28;;;;;;;13.37;87.68;99514.50;8431874;28;20048;-73
2022/07/06 02:22:44;;;;;;;7.78;4.68;;;;;;;13.37;87.52;99509.06;8424159;28;20054;-73
2022/07/06 02:26:45;;;;;;;9.23;4.20;;;;;;;13.34;87.43;99504.25;8409796;28;20036;-73
2022/07/06 02:30:45;;;;;;;8.75;4.45;;;;;;;13.28;87.37;99508.25;8426249;28;20125;-73
2022/07/06 02:34:46;;;;;;;20.55;4.72;;;;;;;13.19;87.78;99502.81;8430529;28;20419;-73
2022/07/06 02:38:47;;;;;;;14.05;5.35;;;;;;;13.17;87.91;99517.78;8430889;28;20087;-73
2022/07/06 02:42:48;;;;;;;10.15;4.50;;;;;;;13.19;87.82;99519.06;8424254;28;20515;-74
2022/07/06 02:46:49;;;;;;;15.63;4.30;;;;;;;13.19;87.62;99529.13;8430197;28;20130;-73
2022/07/06 02:50:50;;;;;;;11.77;3.80;;;;;;;13.15;87.36;99539.00;8387331;28;20072;-73
2022/07/06 02:54:53;;;;;;;9.95;4.80;;;;;;;13.01;87.93;99539.06;8430290;28;20082;-72
2022/07/06 02:58:54;;;;;;;10.18;5.28;;;;;;;13.04;87.86;99539.28;8430681;28;20131;-74
2022/07/06 03:02:55;;;;;;;5.78;4.82;;;;;;;13.11;87.83;99527.97;8416640;28;20460;-72
2022/07/06 03:06:56;;;;;;;9.65;5.10;;;;;;;13.18;87.81;99527.53;8425447;28;20143;-73
2022/07/06 03:10:57;;;;;;;11.38;5.90;;;;;;;13.30;87.76;99535.84;8426427;28;20040;-73
2022/07/06 03:14:58;;;;;;;9.05;5.93;;;;;;;13.43;87.47;99521.38;8428391;28;20388;-73
2022/07/06 03:18:59;;;;;;;15.95;6.53;;;;;;;13.54;87.55;99530.78;8421717;28;20056;-73
2022/07/06 03:23:00;;;;;;;12.52;5.88;;;;;;;13.62;88.03;99526.47;8418476;28;20063;-73
2022/07/06 03:27:01;;;;;;;15.63;7.93;;;;;;;13.66;89.22;99517.38;8422171;28;20048;-73
2022/07/06 03:31:02;;;;;;;13.05;7.63;;;;;;;13.73;89.77;99523.16;8428206;28;20044;-73
2022/07/06 03:35:03;;;;;;;13.85;9.43;;;;;;;13.81;90.68;99522.34;8424915;28;20100;-74
2022/07/06 03:39:04;;;;;;;14.43;8.52;;;;;;;13.89;90.67;99526.19;8382523;28;20483;-73
2022/07/06 03:43:05;;;;;;;16.50;10.15;;;;;;;13.93;90.71;99522.50;8421629;28;20051;-73
2022/07/06 03:47:06;;;;;;;20.75;11.10;;;;;;;14.01;90.48;99522.81;8427641;28;20043;-73
2022/07/06 03:51:07;;;;;;;15.15;10.90;;;;;;;14.15;90.54;99512.56;8427223;28;20514;-73
2022/07/06 03:55:11;;;;;;;18.73;11.90;;;;;;;14.27;90.23;99513.53;8424691;28;20066;-74
2022/07/06 03:59:14;;;;;;;20.30;11.35;;;;;;;14.26;91.37;99530.13;8428547;28;20044;-73
2022/07/06 04:03:15;;;;;;;19.02;11.48;;;;;;;14.20;92.93;99547.72;8428963;28;20056;-73
2022/07/06 04:07:16;;;;;;;20.65;11.30;;;;;;;14.19;94.26;99563.22;8427422;28;20067;-73
2022/07/06 04:11:18;;;;;;;19.95;12.00;;;;;;;14.18;94.63;99571.66;8426151;28;20052;-73
2022/07/06 04:15:18;;;;;;;20.10;10.65;;;;;;;14.17;94.64;99580.97;8424314;28;20051;-73
2022/07/06 04:19:19;;;;;;;18.52;11.05;;;;;;;14.19;95.10;99600.44;8420504;28;20117;-73
2022/07/06 04:23:20;;;;;;;12.82;10.35;;;;;;;14.20;94.84;99596.59;8428397;28;20052;-73
2022/07/06 04:27:21;;;;;;;12.05;9.93;;;;;;;14.30;94.99;99601.72;8427792;28;20131;-75
2022/07/06 04:31:22;;;;;;;16.88;10.20;;;;;;;14.31;94.67;99603.31;8416763;28;20459;-74
2022/07/06 04:35:23;;;;;;;14.10;9.20;;;;;;;14.36;94.58;99600.44;8422445;28;20055;-74
2022/07/06 04:39:24;;;;;;;14.38;8.80;;;;;;;14.42;94.50;99599.19;8423284;28;20396;-74
2022/07/06 04:43:25;;;;;;;14.40;9.20;;;;;;;14.47;94.24;99607.16;8418240;28;20064;-74
2022/07/06 04:47:26;;;;;;;17.60;8.68;;;;;;;14.52;94.11;99620.59;8388134;28;20562;-73
2022/07/06 04:51:27;;;;;;;17.88;8.07;;;;;;;14.58;93.58;99624.75;8421243;28;20041;-75
2022/07/06 04:55:28;;;;;;;20.20;8.65;;;;;;;14.64;93.46;99623.44;8424363;28;20427;-74
2022/07/06 04:59:29;;;;;;;16.20;7.68;;;;;;;14.65;92.60;99625.03;8410976;28;20056;-73
2022/07/06 05:03:30;;;;;;;13.55;7.93;;;;;;;14.68;92.54;99635.28;8406178;28;20083;-73
2022/07/06 05:07:33;;;;;;;16.23;7.10;;;;;;;14.71;91.88;99634.59;8419535;28;20525;-73
2022/07/06 05:11:34;;;;;;;13.35;7.72;;;;;;;14.71;91.98;99640.06;8409603;28;20037;-73
2022/07/06 05:15:35;;;;;;;14.35;7.00;;;;;;;14.69;91.45;99646.94;8422173;28;20045;-73
2022/07/06 05:19:36;;;;;;;19.52;7.15;;;;;;;14.67;91.48;99655.41;8422193;28;20048;-73
2022/07/06 05:23:37;;;;;;;11.77;6.03;;;;;;;14.67;91.19;99658.13;8406090;28;20083;-73
2022/07/06 05:27:38;;;;;;;13.52;6.45;;;;;;;14.68;91.49;99657.03;8411741;28;20044;-73
2022/07/06 05:31:39;;;;;;;17.17;7.20;;;;;;;14.65;91.93;99652.22;8416716;28;20655;-73
2022/07/06 05:35:39;;;;;;;12.60;6.90;;;;;;;14.59;93.37;99653.50;8421215;28;20048;-74
2022/07/06 05:39:43;;;;;;;13.73;7.38;;;;;;;14.51;93.36;99646.16;8383499;28;20036;-73
2022/07/06 05:43:44;;;;;;;9.57;6.70;;;;;;;14.48;94.12;99644.09;8385909;28;20398;-73
2022/07/06 05:52:05;;;;;;;14.02;7.75;;;;;;;14.58;94.49;99646.47;8430967;28;20520;-74
2022/07/06 05:56:06;;;;;;;12.05;7.38;;;;;;;14.67;94.54;99643.75;8432651;28;20545;-73
2022/07/06 06:00:07;;;;;;;11.60;7.25;;;;;;;14.70;94.16;99643.88;8428474;28;20052;-73
2022/07/06 06:04:08;;;;;;;13.23;7.18;;;;;;;14.78;94.13;99629.50;8432369;28;20506;-74
2022/07/06 06:08:09;;;;;;;11.00;7.45;;;;;;;14.87;93.98;99623.22;8432345;28;20131;-74
2022/07/06 06:12:10;;;;;;;10.48;7.13;;;;;;;14.90;93.75;99606.28;8432173;28;20050;-73
2022/07/06 06:16:11;;;;;;;14.25;6.88;;;;;;;14.95;93.73;99584.34;8370765;28;20052;-73
2022/07/06 06:20:13;;;;;;;14.27;6.93;;;;;;;14.95;93.80;99584.34;8424541;28;20130;-74
2022/07/06 06:24:14;;;;;;;9.52;6.47;;;;;;;15.01;93.69;99592.00;8425119;28;20132;-74
2022/07/06 06:28:15;;;;;;;11.18;6.47;;;;;;;15.02;93.72;99595.50;8429785;28;20072;-73
2022/07/06 06:32:16;;;;;;;8.93;6.28;;;;;;;15.04;93.83;99609.56;8418337;28;20522;-73
2022/07/06 06:36:17;;;;;;;10.05;6.40;;;;;;;15.12;93.96;99622.34;8429097;28;20052;-73
2022/07/06 06:40:18;;;;;;;16.00;7.15;;;;;;;15.27;94.61;99632.69;8378800;28;20056;-73
2022/07/06 06:44:22;;;;;;;11.48;6.25;;;;;;;15.32;95.71;99643.41;8425115;28;20056;-73
2022/07/06 06:48:23;;;;;;;11.98;7.53;;;;;;;15.27;96.30;99646.31;8420060;28;20052;-74
2022/07/06 06:52:25;;;;;;;12.20;7.20;;;;;;;15.25;96.22;99653.97;8431064;28;20495;-75
2022/07/06 06:56:25;;;;;;;10.95;6.38;;;;;;;15.20;96.51;99651.44;8423913;28;20101;-73
2022/07/06 07:00:26;;;;;;;14.52;7.30;;;;;;;15.27;96.46;99657.19;8427215;28;20444;-74
2022/07/06 07:04:30;;;;;;;12.50;7.15;;;;;;;15.30;96.13;99659.25;8376741;28;20051;-73
2022/07/06 07:08:31;;;;;;;19.63;8.65;;;;;;;15.37;96.48;99651.38;8422583;28;20056;-73
2022/07/06 07:12:33;;;;;;;15.43;8.02;;;;;;;15.50;96.51;99661.22;8427753;28;20498;-73
2022/07/06 07:16:34;;;;;;;11.85;6.95;;;;;;;15.52;96.34;99653.56;8377480;28;20143;-75
2022/07/06 07:20:34;;;;;;;8.55;6.75;;;;;;;15.52;95.90;99658.22;8421552;28;20043;-73
2022/07/06 07:24:35;;;;;;;12.00;7.07;;;;;;;15.49;96.11;99659.63;8392418;28;20043;-74
2022/07/06 07:28:36;;;;;;;10.05;6.80;;;;;;;15.49;96.26;99665.06;8423084;28;20506;-72
2022/07/06 07:32:40;;;;;;;12.32;6.80;;;;;;;15.77;95.58;99664.63;8369355;28;20047;-73
2022/07/06 07:36:41;;;;;;;12.75;5.75;;;;;;;15.94;93.17;99664.53;8421510;28;20498;-74
2022/07/06 07:40:42;;;;;;;11.57;5.78;;;;;;;16.16;92.23;99669.69;8421594;28;20058;-72
2022/07/06 07:44:43;;;;;;;10.48;5.65;;;;;;;16.41;91.60;99657.78;8389339;28;20044;-73
2022/07/06 07:48:44;;;;;;;7.90;5.35;;;;;;;16.63;90.51;99661.31;8427978;28;20044;-74
2022/07/06 07:52:45;;;;;;;11.65;5.53;;;;;;;16.91;90.66;99670.50;8421885;28;20462;-74
2022/07/06 07:56:47;;;;;;;7.75;5.35;;;;;;;17.15;87.95;99686.94;8428804;28;20087;-75
2022/07/06 08:00:48;;;;;;;7.32;5.38;;;;;;;17.22;87.38;99676.25;8367147;28;20055;-76
2022/07/06 08:04:49;;;;;;;10.07;5.10;;;;;;;17.42;86.47;99673.78;8428197;28;20056;-74
2022/07/06 08:08:50;;;;;;;10.95;4.97;;;;;;;17.55;85.69;99689.03;8390170;28;20056;-77
2022/07/06 08:12:52;;;;;;;7.97;5.00;;;;;;;17.68;82.80;99687.94;8416882;28;20044;-76
2022/07/06 08:16:53;;;;;;;10.20;5.32;;;;;;;17.73;83.12;99679.50;8391557;28;20048;-75
2022/07/06 08:20:56;;;;;;;10.30;4.78;;;;;;;17.97;84.20;99679.50;8427599;28;20073;-74
2022/07/06 08:24:57;;;;;;;8.35;5.50;;;;;;;18.28;82.97;99684.34;8415687;28;20044;-75
2022/07/06 08:28:59;;;;;;;10.93;5.13;;;;;;;18.49;83.10;99689.63;8425216;28;20058;-75
2022/07/06 08:33:01;;;;;;;6.40;4.78;;;;;;;18.49;79.16;99684.16;8427903;28;20052;-75
2022/07/06 08:37:03;;;;;;;9.00;4.20;;;;;;;18.59;78.16;99689.16;8375371;28;20086;-75
2022/07/06 08:41:05;;;;;;;17.08;6.18;;;;;;;18.74;76.63;99674.75;8365447;28;20036;-75
2022/07/06 08:45:07;;;;;;;10.15;4.30;;;;;;;18.96;75.37;99682.38;8396241;28;20106;-75
2022/07/06 08:49:10;;;;;;;5.93;4.38;;;;;;;19.21;75.45;99682.22;8329790;28;20056;-75
2022/07/06 08:53:11;;;;;;;7.75;4.43;;;;;;;19.39;73.95;99683.50;8381132;28;20480;-74
2022/07/06 08:57:12;;;;;;;13.02;4.55;;;;;;;19.42;74.09;99678.09;8350833;28;20053;-74
2022/07/06 09:01:14;;;;;;;8.05;4.05;;;;;;;19.41;73.67;99681.19;8351853;28;20133;-74
2022/07/06 09:05:16;;;;;;;9.50;4.03;;;;;;;19.47;74.20;99679.81;8369589;28;20504;-76
2022/07/06 09:09:21;;;;;;;10.55;5.28;;;;;;;19.73;73.35;99671.81;8368045;28;20053;-78
2022/07/06 09:13:22;;;;;;;8.48;4.32;;;;;;;19.87;73.46;99662.34;8369023;28;20041;-75
2022/07/06 09:17:29;;;;;;;9.77;5.10;;;;;;;20.00;69.04;99669.31;8376141;28;20048;-75
2022/07/06 09:21:32;;;;;;;11.32;5.28;;;;;;;20.16;69.90;99656.34;8358666;28;20060;-75
2022/07/06 09:25:34;;;;;;;7.55;4.45;;;;;;;20.33;70.06;99666.94;8374166;28;20045;-75
2022/07/06 09:29:35;;;;;;;11.90;6.03;;;;;;;20.47;69.00;99661.72;8372832;28;21241;-74
2022/07/06 09:33:37;;;;;;;12.88;4.90;;;;;;;20.80;68.33;99652.97;8390560;28;20044;-75
2022/07/06 09:37:37;;;;;;;7.60;4.22;;;;;;;20.74;67.60;99659.13;8383065;28;20056;-75
2022/07/06 09:41:39;;;;;;;11.98;5.15;;;;;;;20.65;68.06;99657.41;8398325;28;20052;-75
2022/07/06 09:45:48;;;;;;;11.43;4.90;;;;;;;21.11;67.74;99660.22;8385592;28;20078;-75
2022/07/06 09:49:49;;;;;;;7.45;4.05;;;;;;;21.21;65.60;99651.41;8418325;28;20410;-74
2022/07/06 09:53:51;;;;;;;9.98;4.20;;;;;;;21.35;65.37;99651.66;8393566;28;20069;-75
2022/07/06 09:57:54;;;;;;;7.97;4.32;;;;;;;21.52;64.48;99641.31;8432202;28;20526;-74
2022/07/06 10:01:57;;;;;;;9.90;3.42;;;;;;;21.43;63.07;99647.84;8414682;28;20463;-74
2022/07/06 10:05:58;;;;;;;8.52;3.25;;;;;;;21.57;62.61;99641.00;8432419;28;20048;-75
2022/07/06 10:09:59;;;;;;;8.25;3.53;;;;;;;21.83;61.47;99638.28;8432105;28;20070;-75
2022/07/06 10:14:04;;;;;;;5.97;2.50;;;;;;;22.22;55.05;99633.31;8432548;28;20043;-74
2022/07/06 10:18:10;;;;;;;4.88;2.55;;;;;;;22.29;54.76;99639.72;8430969;28;20138;-76
2022/07/06 10:22:12;;;;;;;7.38;3.00;;;;;;;22.68;54.13;99633.88;8379129;28;20552;-75
2022/07/06 10:26:15;;;;;;;6.32;3.05;;;;;;;22.77;53.59;99631.66;8412958;28;20472;-76
2022/07/06 10:30:16;;;;;;;6.78;3.40;;;;;;;22.41;55.74;99635.13;8430705;28;20167;-75
2022/07/06 10:34:19;;;;;;;7.00;2.60;;;;;;;22.17;55.33;99642.69;8424645;28;20044;-74
2022/07/06 10:38:20;;;;;;;7.10;2.50;;;;;;;22.32;54.71;99633.44;8392820;28;20047;-75
2022/07/06 10:42:40;;;;;;;5.32;2.40;;;;;;;22.76;51.38;99635.56;8406274;28;20123;-75
2022/07/06 10:46:50;;;;;;;6.68;2.70;;;;;;;22.67;50.31;99626.78;8377320;28;20041;-75
2022/07/06 10:50:55;;;;;;;5.57;2.80;;;;;;;22.13;49.55;99641.84;8425678;28;20418;-76
2022/07/06 10:54:56;;;;;;;10.18;2.80;;;;;;;21.67;53.27;99645.88;8430747;28;20479;-75
2022/07/06 10:59:02;;;;;;;8.05;3.17;;;;;;;21.28;53.85;99651.53;8389281;28;20134;-74
2022/07/06 11:03:30;;;;;;;3.72;2.50;;;;;;;20.78;55.84;99649.03;8430076;28;20042;-74
2022/07/06 11:07:49;;;;;;;7.32;2.67;;;;;;;20.26;60.86;99661.25;8420181;28;20130;-74
2022/07/06 11:11:50;;;;;;;11.07;3.30;;;;;;;19.86;65.67;99674.47;8429553;28;20040;-74
2022/07/06 11:15:51;;;;;;;6.85;2.40;;;;;;;19.68;67.03;99680.31;8430019;28;20055;-75
2022/07/06 11:19:58;;;;;;;8.38;2.45;;;;;;;19.52;67.68;99674.06;8424285;28;20510;-75
2022/07/06 11:24:02;;;;;;;13.00;2.42;;;;;;;19.51;68.10;99675.19;8411866;28;20055;-74
2022/07/06 11:28:04;;;;;;;7.30;2.70;;;;;;;19.42;68.76;99671.81;8411985;28;20048;-74
2022/07/06 11:32:09;;;;;;;4.90;2.20;;;;;;;19.56;68.79;99683.19;8406457;28;20098;-74
2022/07/06 11:36:21;;;;;;;10.57;2.63;;;;;;;19.83;68.51;99675.19;8368548;28;20042;-74
2022/07/06 11:40:22;;;;;;;8.15;2.50;;;;;;;19.95;68.36;99672.31;8425760;28;20047;-73
2022/07/06 11:44:23;;;;;;;11.15;2.75;;;;;;;20.73;68.08;99668.53;8415411;28;20510;-74
2022/07/06 11:48:25;;;;;;;8.35;2.95;;;;;;;21.37;65.98;99657.56;8425537;28;20483;-74
2022/07/06 11:52:26;;;;;;;7.30;2.30;;;;;;;21.18;66.80;99652.13;8417991;28;20041;-74
2022/07/06 11:56:28;;;;;;;4.88;2.28;;;;;;;20.67;68.08;99676.25;8423271;28;20044;-74
2022/07/06 12:00:31;;;;;;;3.35;1.83;;;;;;;20.24;66.56;99674.56;8404117;28;20094;-75
2022/07/06 12:04:36;;;;;;;4.82;2.17;;;;;;;20.52;66.23;99669.66;8426199;28;20036;-74
2022/07/06 12:08:50;;;;;;;7.47;2.10;;;;;;;21.38;63.03;99670.13;8421029;28;20044;-74
2022/07/06 12:12:51;;;;;;;9.23;2.10;;;;;;;22.03;60.75;99675.50;8413763;28;20048;-74
2022/07/06 12:16:52;;;;;;;7.20;1.73;;;;;;;22.47;58.29;99666.66;8402751;28;20037;-74
2022/07/06 12:20:55;;;;;;;6.25;2.08;;;;;;;22.72;55.28;99667.78;8426273;28;20081;-74
2022/07/06 12:24:57;;;;;;;4.55;1.45;;;;;;;22.33;55.10;99656.25;8415652;28;20059;-74
2022/07/06 12:29:05;;;;;;;3.33;1.30;;;;;;;22.11;53.01;99666.19;8420620;28;20474;-74
2022/07/06 12:33:14;;;;;;;7.60;1.70;;;;;;;21.78;52.78;99668.81;8421862;28;20053;-74
2022/07/06 12:37:15;;;;;;;5.97;1.88;;;;;;;22.13;51.82;99663.88;8416504;28;20127;-74
2022/07/06 12:41:33;;;;;;;2.92;1.38;;;;;;;22.76;48.63;99652.09;8416221;28;20079;-75
2022/07/06 12:45:34;;;;;;;5.40;2.13;;;;;;;23.04;47.66;99646.88;8421293;28;20121;-74
2022/07/06 12:49:37;;;;;;;4.65;1.38;;;;;;;23.03;46.99;99639.78;8425916;28;20414;-74
2022/07/06 12:53:38;;;;;;;5.15;1.50;;;;;;;23.06;48.68;99641.75;8418035;28;20063;-74
2022/07/06 12:57:48;;;;;;;7.35;2.10;;;;;;;22.91;51.38;99659.31;8408620;28;20048;-74
2022/07/06 13:01:50;;;;;;;6.32;1.90;;;;;;;22.32;54.67;99660.16;8410672;28;20075;-75
2022/07/06 13:05:53;;;;;;;6.35;2.22;;;;;;;22.38;55.58;99657.88;8373420;28;20076;-75
2022/07/06 13:09:54;;;;;;;6.00;1.50;;;;;;;23.14;54.81;99651.69;8427168;28;20081;-74
2022/07/06 13:13:55;;;;;;;3.30;1.40;;;;;;;23.48;47.97;99665.38;8410716;28;20089;-74
2022/07/06 13:17:56;;;;;;;4.93;1.63;;;;;;;23.65;44.73;99653.72;8428461;28;20528;-74
2022/07/06 13:21:57;;;;;;;4.35;1.25;;;;;;;23.87;39.64;99649.94;8424971;28;20190;-75
2022/07/06 13:25:58;;;;;;;9.45;1.25;;;;;;;23.58;39.97;99643.41;8365947;28;20060;-74
2022/07/06 13:30:00;;;;;;;5.55;1.95;;;;;;;23.79;41.01;99642.81;8387764;28;20091;-74
2022/07/06 13:34:01;;;;;;;5.03;1.13;;;;;;;23.96;41.59;99647.63;8420230;28;20044;-74
2022/07/06 13:38:02;;;;;;;4.10;1.10;;;;;;;23.76;40.64;99643.56;8421553;28;20999;-73
2022/07/06 13:42:04;;;;;;;4.65;1.45;;;;;;;24.15;43.31;99648.53;8391855;28;20044;-74
2022/07/06 13:46:07;;;;;;;3.00;1.27;;;;;;;24.34;41.32;99653.75;8404008;28;20418;-74
2022/07/06 13:50:10;;;;;;;2.97;0.98;;;;;;;26.95;36.67;99640.22;8414339;28;20044;-74
2022/07/06 13:54:12;;;;;;;4.22;1.10;;;;;;;28.45;33.29;99638.44;8424577;28;20052;-75
2022/07/06 13:58:13;;;;;;;3.65;1.30;;;;;;;27.31;32.06;99628.47;8426848;28;20422;-75
2022/07/06 14:02:14;;;;;;;3.60;1.00;;;;;;;26.22;33.85;99646.50;8424064;28;20048;-74
2022/07/06 14:06:16;;;;;;;6.25;1.10;;;;;;;26.64;33.62;99644.72;8420879;28;20044;-74
2022/07/06 14:10:17;;;;;;;7.03;1.00;;;;;;;26.44;33.66;99642.44;8423270;28;20430;-74
2022/07/06 14:14:47;;;;;;;4.13;1.00;;;;;;;27.64;33.56;99623.47;8426472;28;20040;-74
2022/07/06 14:18:55;;;;;;;6.45;1.00;;;;;;;30.12;30.59;99626.28;8220846;28;20061;-75
2022/07/06 14:22:56;;;;;;;2.70;1.00;;;;;;;31.50;28.64;99627.22;8259449;28;20157;-74
2022/07/06 14:26:57;;;;;;;6.75;1.17;;;;;;;31.02;29.95;99637.13;8236194;28;20053;-74
2022/07/06 14:31:01;;;;;;;5.70;1.30;;;;;;;29.92;30.17;99633.06;8256453;28;20050;-75
2022/07/06 14:35:02;;;;;;;1.77;1.23;;;;;;;29.77;29.80;99622.16;8252544;28;20198;-75
2022/07/06 14:39:04;;;;;;;4.80;1.20;;;;;;;28.58;30.17;99633.91;8221217;28;20106;-75
2022/07/06 14:43:05;;;;;;;3.10;1.48;;;;;;;29.30;28.82;99626.13;8256518;28;20062;-75
2022/07/06 14:47:06;;;;;;;5.25;1.35;;;;;;;27.57;30.17;99623.53;8254842;28;20046;-75
2022/07/06 14:51:08;;;;;;;8.23;1.70;;;;;;;28.30;30.19;99620.38;8251949;28;20046;-76
2022/07/06 14:55:09;;;;;;;6.80;1.52;;;;;;;30.99;29.25;99627.63;8252041;28;20570;-76
2022/07/06 14:59:10;;;;;;;3.20;1.40;;;;;;;32.15;27.30;99628.69;8248322;28;20043;-76
2022/07/06 15:03:11;;;;;;;3.28;1.20;;;;;;;31.18;28.97;99634.38;8253846;28;20138;-76
2022/07/06 15:07:12;;;;;;;4.90;1.20;;;;;;;28.48;30.55;99643.97;8258333;28;20050;-74
2022/07/06 15:11:13;;;;;;;7.07;1.70;;;;;;;28.65;30.63;99636.63;8219322;28;20462;-77
2022/07/06 15:15:14;;;;;;;5.40;1.27;;;;;;;27.52;32.18;99640.59;8299191;28;20049;-75
2022/07/06 15:19:15;;;;;;;3.03;1.20;;;;;;;26.47;33.89;99641.63;8352466;28;20048;-75
2022/07/06 15:23:16;;;;;;;3.15;1.40;;;;;;;25.68;35.56;99641.44;8353448;28;20053;-75
2022/07/06 15:27:20;;;;;;;5.00;1.50;;;;;;;25.92;35.69;99637.81;8360340;28;20076;-75
2022/07/06 15:31:21;;;;;;;6.15;1.80;;;;;;;25.88;35.85;99642.59;8353524;28;20071;-75
2022/07/06 15:35:22;;;;;;;4.55;1.98;;;;;;;28.42;30.62;99622.63;8349927;28;20080;-76
2022/07/06 15:39:23;;;;;;;4.72;1.60;;;;;;;29.46;28.60;99623.50;8348484;28;20144;-76
2022/07/06 15:43:24;;;;;;;5.78;1.73;;;;;;;28.95;28.34;99622.72;8340107;28;20476;-75
2022/07/06 15:47:25;;;;;;;5.82;1.60;;;;;;;29.00;29.78;99617.88;8361568;28;20052;-75
2022/07/06 15:51:26;;;;;;;5.82;2.20;;;;;;;28.23;29.00;99621.28;8421496;28;20068;-75
2022/07/06 15:55:28;;;;;;;7.60;1.88;;;;;;;27.24;31.25;99614.66;8384893;28;20483;-76
2022/07/06 15:59:28;;;;;;;3.22;1.77;;;;;;;26.96;31.87;99617.66;8393307;28;20479;-77
2022/07/06 16:03:30;;;;;;;8.95;1.83;;;;;;;26.39;33.04;99620.69;8405883;28;20060;-75
2022/07/06 16:07:30;;;;;;;5.57;1.92;;;;;;;25.89;32.57;99622.03;8364177;28;20056;-75
2022/07/06 16:11:31;;;;;;;7.05;2.05;;;;;;;25.67;32.29;99614.94;8408462;28;20063;-75
2022/07/06 16:15:32;;;;;;;3.75;1.50;;;;;;;25.36;32.75;99611.78;8425069;28;20040;-75
2022/07/06 16:19:33;;;;;;;2.03;1.50;;;;;;;25.03;34.60;99614.94;8419728;28;20120;-76
2022/07/06 16:23:34;;;;;;;6.13;1.65;;;;;;;24.87;34.31;99611.72;8379234;28;20045;-75
2022/07/06 16:27:36;;;;;;;4.03;1.55;;;;;;;24.82;32.95;99605.41;8416122;28;20044;-75
2022/07/06 16:31:37;;;;;;;5.60;1.90;;;;;;;24.63;33.85;99607.75;8409845;28;20032;-76
2022/07/06 16:35:41;;;;;;;5.95;1.67;;;;;;;24.80;33.93;99610.53;8410248;28;20040;-75
2022/07/06 16:39:42;;;;;;;5.38;1.30;;;;;;;24.78;33.58;99620.41;8423216;28;20036;-76
2022/07/06 16:43:47;;;;;;;8.80;1.25;;;;;;;24.20;33.37;99623.34;8415420;28;20101;-76
2022/07/06 16:47:48;;;;;;;2.55;1.27;;;;;;;23.85;34.86;99607.34;8367178;28;20067;-77
2022/07/06 16:51:53;;;;;;;3.58;1.35;;;;;;;23.46;36.18;99607.13;8413122;28;20115;-76
2022/07/06 16:55:55;;;;;;;5.90;1.40;;;;;;;23.60;35.02;99601.69;8422078;28;20032;-77
2022/07/06 16:59:56;;;;;;;7.13;1.40;;;;;;;23.42;36.15;99600.75;8396957;28;20480;-75
2022/07/06 17:03:58;;;;;;;3.00;1.35;;;;;;;23.07;35.94;99607.53;8386467;28;20071;-75
2022/07/06 17:07:59;;;;;;;10.20;1.23;;;;;;;22.81;36.16;99604.94;8370777;28;20046;-76
2022/07/06 17:12:00;;;;;;;3.67;1.40;;;;;;;22.50;36.42;99610.84;8374606;28;20127;-76
2022/07/06 17:16:01;;;;;;;3.10;1.27;;;;;;;22.32;36.94;99611.44;8415968;28;20123;-75
2022/07/06 17:20:03;;;;;;;3.65;1.58;;;;;;;22.20;37.96;99611.69;8412697;28;20052;-75
2022/07/06 17:24:04;;;;;;;5.78;1.60;;;;;;;21.94;37.37;99628.25;8415221;28;20343;-76
2022/07/06 17:28:06;;;;;;;6.55;1.08;;;;;;;21.73;38.07;99617.69;8420415;28;20059;-76
2022/07/06 17:32:07;;;;;;;4.35;1.55;;;;;;;21.51;37.66;99626.00;8379156;28;20059;-75
2022/07/06 17:36:08;;;;;;;2.60;0.95;;;;;;;21.30;38.20;99615.47;8421760;28;20047;-76
2022/07/06 17:40:10;;;;;;;5.72;1.13;;;;;;;21.11;39.03;99624.50;8407592;28;20040;-76
2022/07/06 17:44:11;;;;;;;8.88;1.55;;;;;;;20.92;39.49;99627.31;8417480;28;20411;-76
2022/07/06 17:48:12;;;;;;;4.88;1.15;;;;;;;20.80;39.49;99619.25;8418005;28;20068;-75
2022/07/06 17:52:16;;;;;;;7.68;0.93;;;;;;;20.71;39.76;99622.22;8363500;28;21349;-75
2022/07/06 17:56:18;;;;;;;3.17;1.08;;;;;;;20.56;40.22;99626.66;8424581;28;20047;-75
2022/07/06 18:00:19;;;;;;;3.03;1.10;;;;;;;20.37;41.33;99629.41;8421195;28;20526;-75
2022/07/06 18:04:21;;;;;;;3.63;1.10;;;;;;;20.19;41.72;99628.22;8396681;28;20092;-76
2022/07/06 18:08:25;;;;;;;3.17;1.13;;;;;;;20.07;41.62;99631.88;8422582;28;20059;-77
2022/07/06 18:12:26;;;;;;;6.40;1.25;;;;;;;19.97;42.26;99642.63;8426340;28;20105;-76
2022/07/06 18:16:29;;;;;;;4.07;1.23;;;;;;;19.75;43.54;99642.13;8380802;28;20076;-75
2022/07/06 18:20:31;;;;;;;4.55;1.63;;;;;;;19.60;45.25;99640.22;8378516;28;20048;-76
2022/07/06 18:24:32;;;;;;;6.95;1.50;;;;;;;19.41;46.83;99646.38;8423320;28;20052;-75
2022/07/06 18:28:33;;;;;;;4.10;1.05;;;;;;;19.21;48.29;99638.44;8419258;28;20055;-75
2022/07/06 18:32:34;;;;;;;5.45;1.20;;;;;;;19.03;48.89;99653.63;8424631;28;20052;-74
2022/07/06 18:36:36;;;;;;;4.63;1.20;;;;;;;18.85;50.32;99648.47;8380286;28;20135;-74
2022/07/06 18:40:37;;;;;;;2.80;1.17;;;;;;;18.65;51.17;99644.00;8385457;28;20052;-75
2022/07/06 18:44:38;;;;;;;2.35;1.00;;;;;;;18.52;51.94;99645.16;8416829;28;20455;-74
2022/07/06 18:48:39;;;;;;;5.80;1.15;;;;;;;18.32;52.95;99651.63;8385168;28;20044;-74
2022/07/06 18:52:41;;;;;;;4.05;1.52;;;;;;;18.11;54.17;99647.13;8406360;28;20100;-75
2022/07/06 18:56:43;;;;;;;4.43;1.63;;;;;;;17.97;54.48;99652.16;8428321;28;20040;-74